Time;durP1;ratioP1;P1;durP2;ratioP2;P2;SDS_P1;SDS_P2;PMS_P1;PMS_P2;Temp;Humidity;BMP_temperature;BMP_pressure;BME280_temperature;BME280_humidity;BME280_pressure;Samples;Min_cycle;Max_cycle;Signal;HPM_P1;HPM_P2
2022/08/18 00:02:04;;;;;;;;;22.00;21.67;;;;;;;;5073835;28;51367;-61
2022/08/18 00:04:29;;;;;;;;;21.67;21.33;;;;;;;;5073317;28;52017;-61
2022/08/18 00:06:55;;;;;;;;;21.67;20.33;;;;;;;;5073491;27;50976;-61
2022/08/18 00:09:20;;;;;;;;;17.67;17.67;;;;;;;;5072078;28;51105;-61
2022/08/18 00:11:45;;;;;;;;;20.67;20.67;;;;;;;;5073896;28;51079;-60
2022/08/18 00:14:13;;;;;;;;;16.67;16.33;;;;;;;;5073311;28;51032;-61
2022/08/18 00:16:38;;;;;;;;;22.25;20.00;;;;;;;;5073420;27;51073;-60
2022/08/18 00:19:04;;;;;;;;;20.67;19.67;;;;;;;;5073842;28;51411;-62
2022/08/18 00:21:29;;;;;;;;;19.33;19.33;;;;;;;;5073772;28;51142;-61
2022/08/18 00:23:54;;;;;;;;;19.00;18.50;;;;;;;;5073067;28;52251;-61
2022/08/18 00:26:19;;;;;;;;;19.00;17.33;;;;;;;;5073404;28;50918;-62
2022/08/18 00:28:44;;;;;;;;;16.33;16.33;;;;;;;;5073451;28;51009;-62
2022/08/18 00:31:10;;;;;;;;;22.00;21.67;;;;;;;;5073755;28;51279;-61
2022/08/18 00:33:35;;;;;;;;;20.67;19.33;;;;;;;;5073050;28;51080;-61
2022/08/18 00:36:00;;;;;;;;;20.67;20.33;;;;;;;;5073360;28;51151;-61
2022/08/18 00:38:25;;;;;;;;;18.67;17.33;;;;;;;;5073049;28;50849;-61
2022/08/18 00:40:52;;;;;;;;;19.00;17.67;;;;;;;;5073601;28;50850;-61
2022/08/18 00:43:35;;;;;;;;;17.33;17.00;;;;;;;;5072965;28;51144;-61
2022/08/18 00:46:00;;;;;;;;;16.33;16.33;;;;;;;;5073168;28;50905;-61
2022/08/18 00:48:26;;;;;;;;;21.00;18.67;;;;;;;;5071748;28;50948;-61
2022/08/18 00:50:58;;;;;;;;;18.33;18.33;;;;;;;;5073292;27;50964;-60
2022/08/18 00:53:49;;;;;;;;;18.33;17.00;;;;;;;;5072344;28;51260;-60
2022/08/18 00:56:21;;;;;;;;;17.67;16.67;;;;;;;;5071419;27;51047;-60
2022/08/18 00:58:49;;;;;;;;;19.33;16.67;;;;;;;;5072907;28;50918;-62
2022/08/18 01:01:16;;;;;;;;;17.67;17.33;;;;;;;;5072936;28;51046;-62
2022/08/18 01:03:42;;;;;;;;;18.33;17.00;;;;;;;;5072530;28;51966;-61
2022/08/18 01:06:20;;;;;;;;;19.33;18.67;;;;;;;;5072614;28;51158;-61
2022/08/18 01:08:45;;;;;;;;;18.33;18.33;;;;;;;;5072518;28;50989;-62
2022/08/18 01:11:10;;;;;;;;;17.33;17.00;;;;;;;;5073030;28;50792;-61
2022/08/18 01:13:38;;;;;;;;;19.67;18.67;;;;;;;;5072772;28;51218;-61
2022/08/18 01:21:49;;;;;;;;;16.33;16.33;;;;;;;;5072520;27;51039;-61
2022/08/18 01:21:50;;;;;;;;;19.00;18.33;;;;;;;;5072812;28;51065;-61
2022/08/18 01:24:16;;;;;;;;;21.67;20.67;;;;;;;;5071977;28;52869;-60
2022/08/18 01:26:45;;;;;;;;;20.33;19.33;;;;;;;;5072528;28;50869;-60
2022/08/18 01:29:10;;;;;;;;;16.00;16.00;;;;;;;;5072451;27;51340;-61
2022/08/18 01:31:38;;;;;;;;;17.67;17.67;;;;;;;;5072697;28;51318;-62
2022/08/18 01:34:07;;;;;;;;;20.67;19.33;;;;;;;;5071523;28;51865;-61
2022/08/18 01:36:36;;;;;;;;;15.00;14.67;;;;;;;;5072456;28;51692;-61
2022/08/18 01:39:02;;;;;;;;;19.33;19.33;;;;;;;;5071314;28;51111;-61
2022/08/18 01:41:28;;;;;;;;;18.00;17.33;;;;;;;;5072778;28;51281;-61
2022/08/18 01:43:53;;;;;;;;;16.33;15.00;;;;;;;;5072377;28;51342;-62
2022/08/18 01:46:20;;;;;;;;;15.33;14.33;;;;;;;;5072887;28;51080;-61
2022/08/18 01:48:45;;;;;;;;;18.00;18.00;;;;;;;;5073093;27;50890;-62
2022/08/18 01:51:12;;;;;;;;;17.67;15.00;;;;;;;;5073170;28;51147;-61
2022/08/18 01:53:37;;;;;;;;;17.67;17.00;;;;;;;;5071841;28;51957;-62
2022/08/18 01:56:04;;;;;;;;;18.00;17.67;;;;;;;;5072262;28;51364;-61
2022/08/18 01:58:30;;;;;;;;;19.00;19.00;;;;;;;;5059162;28;51087;-62
2022/08/18 02:00:57;;;;;;;;;17.50;15.25;;;;;;;;5072826;28;51044;-62
2022/08/18 02:03:25;;;;;;;;;18.33;18.00;;;;;;;;5059695;28;51963;-61
2022/08/18 02:05:55;;;;;;;;;16.67;16.67;;;;;;;;5071718;28;51132;-63
2022/08/18 02:08:20;;;;;;;;;20.33;19.33;;;;;;;;5072230;28;51149;-61
2022/08/18 02:10:46;;;;;;;;;17.33;17.33;;;;;;;;5072549;28;51241;-60
2022/08/18 02:13:11;;;;;;;;;17.67;16.00;;;;;;;;5072220;27;51021;-61
2022/08/18 02:15:37;;;;;;;;;20.00;19.00;;;;;;;;5072527;28;51043;-61
2022/08/18 02:18:02;;;;;;;;;17.00;16.33;;;;;;;;5072606;28;51037;-61
2022/08/18 02:20:28;;;;;;;;;18.33;15.33;;;;;;;;5072623;28;51288;-61
2022/08/18 02:22:53;;;;;;;;;18.00;17.67;;;;;;;;5071901;28;51968;-61
2022/08/18 02:25:18;;;;;;;;;17.33;16.67;;;;;;;;5071844;28;51017;-61
2022/08/18 02:27:44;;;;;;;;;14.67;14.67;;;;;;;;5072160;28;51524;-61
2022/08/18 02:30:12;;;;;;;;;15.67;14.00;;;;;;;;5072156;28;50905;-61
2022/08/18 02:32:37;;;;;;;;;13.33;13.33;;;;;;;;5069962;28;52061;-61
2022/08/18 02:35:05;;;;;;;;;14.00;13.67;;;;;;;;5071441;27;51006;-61
2022/08/18 02:37:30;;;;;;;;;14.00;14.00;;;;;;;;5071894;28;51081;-61
2022/08/18 02:39:56;;;;;;;;;12.00;12.00;;;;;;;;5070531;28;51572;-61
2022/08/18 02:42:21;;;;;;;;;16.67;16.33;;;;;;;;5070785;28;53120;-61
2022/08/18 02:44:46;;;;;;;;;18.33;15.33;;;;;;;;5071900;28;51139;-60
2022/08/18 02:47:11;;;;;;;;;14.00;14.00;;;;;;;;5075280;28;51035;-61
2022/08/18 02:49:37;;;;;;;;;16.67;14.33;;;;;;;;5075495;28;51091;-61
2022/08/18 02:52:02;;;;;;;;;20.00;17.00;;;;;;;;5074908;28;52098;-61
2022/08/18 02:54:27;;;;;;;;;16.33;16.00;;;;;;;;5074478;28;51043;-61
2022/08/18 02:56:53;;;;;;;;;18.33;17.67;;;;;;;;5075031;28;51003;-61
2022/08/18 02:59:26;;;;;;;;;14.33;14.33;;;;;;;;5075211;27;51392;-60
2022/08/18 03:01:52;;;;;;;;;16.67;16.00;;;;;;;;5074608;27;51053;-61
2022/08/18 03:04:19;;;;;;;;;18.33;17.00;;;;;;;;5074748;28;50959;-61
2022/08/18 03:06:45;;;;;;;;;15.33;15.33;;;;;;;;5073276;28;51231;-61
2022/08/18 03:09:11;;;;;;;;;21.00;18.00;;;;;;;;5073260;28;50941;-61
2022/08/18 03:11:37;;;;;;;;;20.50;20.00;;;;;;;;5074655;28;51032;-60
2022/08/18 03:14:04;;;;;;;;;20.00;19.33;;;;;;;;5074578;28;50881;-62
2022/08/18 03:16:33;;;;;;;;;17.67;16.67;;;;;;;;5074512;28;51032;-61
2022/08/18 03:18:59;;;;;;;;;18.33;17.67;;;;;;;;5074695;27;50946;-62
2022/08/18 03:21:26;;;;;;;;;16.00;15.67;;;;;;;;5074328;28;50894;-61
2022/08/18 03:23:52;;;;;;;;;22.33;21.67;;;;;;;;5074181;28;51098;-61
2022/08/18 03:26:18;;;;;;;;;22.33;21.00;;;;;;;;5074541;28;51144;-60
2022/08/18 03:28:45;;;;;;;;;17.00;16.67;;;;;;;;5074599;28;51169;-60
2022/08/18 03:31:13;;;;;;;;;21.67;21.00;;;;;;;;5074256;28;51967;-62
2022/08/18 03:33:39;;;;;;;;;20.75;20.00;;;;;;;;5072940;28;51130;-60
2022/08/18 03:36:05;;;;;;;;;16.50;16.00;;;;;;;;5074255;28;50957;-61
2022/08/18 03:38:31;;;;;;;;;23.67;22.67;;;;;;;;5074108;28;50974;-61
2022/08/18 03:40:56;;;;;;;;;19.67;19.67;;;;;;;;5074018;28;52186;-61
2022/08/18 03:43:21;;;;;;;;;20.00;19.00;;;;;;;;5074101;28;50822;-60
2022/08/18 03:45:46;;;;;;;;;23.67;22.33;;;;;;;;5074461;28;51021;-61
2022/08/18 03:48:12;;;;;;;;;22.00;20.00;;;;;;;;5074371;28;50881;-61
2022/08/18 03:50:37;;;;;;;;;20.00;19.33;;;;;;;;5073932;28;53025;-62
2022/08/18 03:53:04;;;;;;;;;21.33;20.67;;;;;;;;5073796;28;50871;-61
2022/08/18 03:55:29;;;;;;;;;19.75;19.50;;;;;;;;5073961;28;51050;-61
2022/08/18 03:58:01;;;;;;;;;22.00;21.25;;;;;;;;5074267;28;51181;-62
2022/08/18 04:00:28;;;;;;;;;20.33;19.67;;;;;;;;5072370;28;53892;-60
2022/08/18 04:02:54;;;;;;;;;21.50;20.75;;;;;;;;5074028;27;51142;-61
2022/08/18 04:05:19;;;;;;;;;21.00;21.00;;;;;;;;5073677;27;51258;-61
2022/08/18 04:07:44;;;;;;;;;23.75;23.75;;;;;;;;5073707;28;51068;-61
2022/08/18 04:10:10;;;;;;;;;23.75;23.25;;;;;;;;5073705;28;52168;-61
2022/08/18 04:12:37;;;;;;;;;23.25;22.50;;;;;;;;5072222;28;50909;-61
2022/08/18 04:15:02;;;;;;;;;20.00;19.75;;;;;;;;5073998;28;51204;-61
2022/08/18 04:17:27;;;;;;;;;23.00;21.25;;;;;;;;5073687;27;51021;-61
2022/08/18 04:19:53;;;;;;;;;22.75;21.75;;;;;;;;5073477;28;51042;-61
2022/08/18 04:22:19;;;;;;;;;26.67;22.67;;;;;;;;5073698;28;51015;-61
2022/08/18 04:24:45;;;;;;;;;23.50;23.25;;;;;;;;5073498;28;50849;-62
2022/08/18 04:27:10;;;;;;;;;28.00;25.75;;;;;;;;5073691;28;51239;-60
2022/08/18 04:29:35;;;;;;;;;26.00;24.33;;;;;;;;5072009;28;53963;-61
2022/08/18 04:32:03;;;;;;;;;22.67;21.00;;;;;;;;5073580;28;51077;-60
2022/08/18 04:34:28;;;;;;;;;25.75;24.75;;;;;;;;5073621;28;51291;-60
2022/08/18 04:36:54;;;;;;;;;25.25;25.00;;;;;;;;5073592;27;51109;-61
2022/08/18 04:39:19;;;;;;;;;23.00;22.00;;;;;;;;5072827;28;51394;-61
2022/08/18 04:41:47;;;;;;;;;20.33;20.33;;;;;;;;5073486;28;51180;-61
2022/08/18 04:44:12;;;;;;;;;26.25;24.00;;;;;;;;5071675;28;51063;-61
2022/08/18 04:46:42;;;;;;;;;26.25;25.50;;;;;;;;5073448;28;51052;-60
2022/08/18 04:49:09;;;;;;;;;24.25;23.25;;;;;;;;5073098;27;51880;-61
2022/08/18 04:51:34;;;;;;;;;26.75;25.50;;;;;;;;5072892;28;51166;-61
2022/08/18 04:54:00;;;;;;;;;22.25;19.75;;;;;;;;5072776;27;50985;-61
2022/08/18 04:56:27;;;;;;;;;28.00;27.00;;;;;;;;5073235;28;51067;-61
2022/08/18 04:58:57;;;;;;;;;30.50;28.75;;;;;;;;5072944;27;51084;-61
2022/08/18 05:01:24;;;;;;;;;28.00;27.50;;;;;;;;5073131;28;51072;-61
2022/08/18 05:03:50;;;;;;;;;30.50;28.50;;;;;;;;5073050;28;51061;-61
2022/08/18 05:06:15;;;;;;;;;30.25;27.00;;;;;;;;5073113;27;51187;-61
2022/08/18 05:08:40;;;;;;;;;26.25;25.25;;;;;;;;5071311;28;51700;-62
2022/08/18 05:11:06;;;;;;;;;29.50;28.50;;;;;;;;5073049;28;50990;-62
2022/08/18 05:13:31;;;;;;;;;25.50;24.25;;;;;;;;5072977;28;51092;-61
2022/08/18 05:15:58;;;;;;;;;31.75;29.50;;;;;;;;5072943;28;51036;-61
2022/08/18 05:18:23;;;;;;;;;30.75;26.75;;;;;;;;5072520;28;51927;-61
2022/08/18 05:20:50;;;;;;;;;34.75;30.75;;;;;;;;5072528;28;51177;-61
2022/08/18 05:23:16;;;;;;;;;36.00;33.50;;;;;;;;5072377;28;50895;-62
2022/08/18 05:25:41;;;;;;;;;40.25;34.50;;;;;;;;5072862;28;50922;-61
2022/08/18 05:28:08;;;;;;;;;32.75;31.50;;;;;;;;5072456;28;51109;-61
2022/08/18 05:30:33;;;;;;;;;33.75;31.75;;;;;;;;5072424;28;51043;-61
2022/08/18 05:33:00;;;;;;;;;38.25;34.25;;;;;;;;5072612;28;51236;-61
2022/08/18 05:35:29;;;;;;;;;36.25;33.00;;;;;;;;5072613;28;51241;-61
2022/08/18 05:38:01;;;;;;;;;40.00;34.50;;;;;;;;5071887;28;51901;-61
2022/08/18 05:40:27;;;;;;;;;38.00;34.00;;;;;;;;5072262;28;50977;-61
2022/08/18 05:42:53;;;;;;;;;36.25;32.25;;;;;;;;5070832;28;51047;-62
2022/08/18 05:45:19;;;;;;;;;40.75;33.50;;;;;;;;5072410;28;50839;-62
2022/08/18 05:47:44;;;;;;;;;46.00;37.25;;;;;;;;5072286;28;51059;-62
2022/08/18 05:50:11;;;;;;;;;40.25;33.75;;;;;;;;5072319;28;50902;-62
2022/08/18 05:53:06;;;;;;;;;47.50;38.50;;;;;;;;5071892;28;51337;-61
2022/08/18 05:58:35;;;;;;;;;39.25;35.25;;;;;;;;5072030;28;50984;-61
2022/08/18 06:01:02;;;;;;;;;31.50;30.50;;;;;;;;5072129;28;50926;-62
2022/08/18 06:03:31;;;;;;;;;36.50;32.25;;;;;;;;5072305;28;51059;-61
2022/08/18 06:06:01;;;;;;;;;30.50;30.00;;;;;;;;5072036;28;51306;-60
2022/08/18 06:08:37;;;;;;;;;29.75;28.25;;;;;;;;5069737;28;53972;-62
2022/08/18 06:11:02;;;;;;;;;27.25;24.50;;;;;;;;5071922;28;50980;-62
2022/08/18 06:13:37;;;;;;;;;29.75;28.00;;;;;;;;5072210;28;51449;-62
2022/08/18 06:16:02;;;;;;;;;27.75;27.25;;;;;;;;5072240;27;51001;-62
2022/08/18 06:18:37;;;;;;;;;27.00;26.75;;;;;;;;5070320;28;52618;-62
2022/08/18 06:21:09;;;;;;;;;25.50;24.25;;;;;;;;5075186;28;50924;-61
2022/08/18 06:23:37;;;;;;;;;25.75;24.75;;;;;;;;5075179;28;50959;-61
2022/08/18 06:26:08;;;;;;;;;26.67;25.67;;;;;;;;5076185;28;51260;-61
2022/08/18 06:28:42;;;;;;;;;27.75;26.50;;;;;;;;5075764;28;51899;-62
2022/08/18 06:31:14;;;;;;;;;33.00;31.75;;;;;;;;5075604;28;51059;-62
2022/08/18 06:33:40;;;;;;;;;29.00;28.75;;;;;;;;5075024;28;50984;-61
2022/08/18 06:36:11;;;;;;;;;37.50;32.50;;;;;;;;5075375;28;51092;-61
2022/08/18 06:38:40;;;;;;;;;35.25;32.25;;;;;;;;5073196;28;53632;-60
2022/08/18 06:41:11;;;;;;;;;34.00;30.75;;;;;;;;5075283;28;50900;-61
2022/08/18 06:43:38;;;;;;;;;37.00;33.00;;;;;;;;5073878;28;51032;-61
2022/08/18 06:46:07;;;;;;;;;36.25;31.50;;;;;;;;5075471;28;50895;-61
2022/08/18 06:48:39;;;;;;;;;34.50;32.25;;;;;;;;5074608;28;50976;-61
2022/08/18 06:51:06;;;;;;;;;33.75;31.00;;;;;;;;5075294;28;51048;-62
2022/08/18 06:53:51;;;;;;;;;27.00;25.75;;;;;;;;5073978;28;51207;-61
2022/08/18 06:56:40;;;;;;;;;32.00;30.25;;;;;;;;5074712;28;51234;-62
2022/08/18 06:59:14;;;;;;;;;32.00;28.25;;;;;;;;5071520;28;51193;-62
2022/08/18 07:01:39;;;;;;;;;34.25;30.25;;;;;;;;5075134;28;51071;-62
2022/08/18 07:04:04;;;;;;;;;29.75;28.50;;;;;;;;5074819;28;51021;-61
2022/08/18 07:06:30;;;;;;;;;35.50;30.75;;;;;;;;5074793;28;50881;-61
2022/08/18 07:09:15;;;;;;;;;29.25;28.25;;;;;;;;5073910;28;51049;-64
2022/08/18 07:11:56;;;;;;;;;30.50;29.50;;;;;;;;5073000;27;50981;-62
2022/08/18 07:14:24;;;;;;;;;33.50;31.00;;;;;;;;5075002;28;51088;-63
2022/08/18 07:16:50;;;;;;;;;32.25;29.25;;;;;;;;5073472;28;51331;-62
2022/08/18 07:19:19;;;;;;;;;32.75;30.50;;;;;;;;5074014;28;51024;-62
2022/08/18 07:21:45;;;;;;;;;33.00;31.25;;;;;;;;5074510;28;50887;-61
2022/08/18 07:24:20;;;;;;;;;35.00;32.00;;;;;;;;5072534;28;51098;-61
2022/08/18 07:27:21;;;;;;;;;28.50;27.75;;;;;;;;5072309;28;51027;-61
2022/08/18 07:30:05;;;;;;;;;33.75;31.50;;;;;;;;5031508;28;51857;-61
2022/08/18 07:32:43;;;;;;;;;32.00;30.50;;;;;;;;5069316;28;51041;-61
2022/08/18 07:35:10;;;;;;;;;34.50;31.50;;;;;;;;5073981;28;50989;-63
2022/08/18 07:37:44;;;;;;;;;37.00;32.25;;;;;;;;5072448;28;51048;-61
2022/08/18 07:40:12;;;;;;;;;38.00;34.00;;;;;;;;5074041;28;52102;-60
2022/08/18 07:42:55;;;;;;;;;37.75;34.25;;;;;;;;5074090;28;50959;-61
2022/08/18 07:45:28;;;;;;;;;41.50;34.25;;;;;;;;5074031;27;51737;-60
2022/08/18 07:47:57;;;;;;;;;41.75;34.75;;;;;;;;5074090;28;50978;-61
2022/08/18 07:50:43;;;;;;;;;41.50;34.25;;;;;;;;5073903;27;50981;-61
2022/08/18 07:53:08;;;;;;;;;37.50;33.25;;;;;;;;5072966;27;51028;-61
2022/08/18 07:55:35;;;;;;;;;37.25;34.00;;;;;;;;5073862;28;51317;-62
2022/08/18 07:58:19;;;;;;;;;35.25;31.75;;;;;;;;5074189;27;51208;-63
2022/08/18 08:01:07;;;;;;;;;34.75;32.25;;;;;;;;5073487;27;52835;-62
2022/08/18 08:03:44;;;;;;;;;33.25;31.25;;;;;;;;5061504;28;50865;-62
2022/08/18 08:06:21;;;;;;;;;40.25;35.00;;;;;;;;5073432;27;51157;-62
2022/08/18 08:08:54;;;;;;;;;36.50;32.00;;;;;;;;5073367;27;51189;-62
2022/08/18 08:11:34;;;;;;;;;35.25;32.25;;;;;;;;5073484;28;50899;-62
2022/08/18 08:14:03;;;;;;;;;35.00;31.25;;;;;;;;5073438;28;51042;-62
2022/08/18 08:16:28;;;;;;;;;37.75;32.25;;;;;;;;5073257;27;51081;-61
2022/08/18 08:18:53;;;;;;;;;33.00;30.00;;;;;;;;5073400;28;51229;-61
2022/08/18 08:21:20;;;;;;;;;34.00;31.50;;;;;;;;5071486;28;52550;-62
2022/08/18 08:24:07;;;;;;;;;31.00;28.75;;;;;;;;5072912;28;50949;-62
2022/08/18 08:26:51;;;;;;;;;30.75;29.50;;;;;;;;5072768;28;51016;-62
2022/08/18 08:29:17;;;;;;;;;34.50;31.00;;;;;;;;5073448;27;51183;-62
2022/08/18 08:31:56;;;;;;;;;35.50;32.00;;;;;;;;5072642;28;52324;-62
2022/08/18 08:34:21;;;;;;;;;35.25;31.00;;;;;;;;5073127;28;51079;-61
2022/08/18 08:36:47;;;;;;;;;32.00;30.00;;;;;;;;5073052;28;51243;-61
2022/08/18 08:39:12;;;;;;;;;37.50;33.25;;;;;;;;5072780;28;51048;-61
2022/08/18 08:41:44;;;;;;;;;31.50;29.00;;;;;;;;5072303;27;51233;-61
2022/08/18 08:44:22;;;;;;;;;34.00;31.50;;;;;;;;5072751;28;51176;-64
2022/08/18 08:46:50;;;;;;;;;32.00;30.00;;;;;;;;5072219;28;51183;-62
2022/08/18 08:49:24;;;;;;;;;30.50;28.25;;;;;;;;5073303;28;51315;-61
2022/08/18 08:51:56;;;;;;;;;25.50;25.00;;;;;;;;5072508;28;51079;-61
2022/08/18 08:54:28;;;;;;;;;24.00;23.25;;;;;;;;5065029;28;51049;-61
2022/08/18 08:56:55;;;;;;;;;33.25;29.75;;;;;;;;5072547;28;51205;-61
2022/08/18 08:59:21;;;;;;;;;25.50;24.75;;;;;;;;5072826;28;51110;-61
2022/08/18 09:01:49;;;;;;;;;26.25;26.00;;;;;;;;5072303;28;52287;-61
2022/08/18 09:04:20;;;;;;;;;29.00;27.25;;;;;;;;5071382;28;51167;-61
2022/08/18 09:06:51;;;;;;;;;27.00;25.50;;;;;;;;5072719;27;51184;-61
2022/08/18 09:09:22;;;;;;;;;29.75;28.25;;;;;;;;5072555;28;51332;-61
2022/08/18 09:11:56;;;;;;;;;26.00;25.50;;;;;;;;5072566;28;51696;-62
2022/08/18 09:14:24;;;;;;;;;29.25;28.50;;;;;;;;5072443;28;51024;-62
2022/08/18 09:17:08;;;;;;;;;24.50;24.25;;;;;;;;5072684;28;51151;-63
2022/08/18 09:19:36;;;;;;;;;27.75;27.25;;;;;;;;5072461;27;50859;-64
2022/08/18 09:22:41;;;;;;;;;24.75;24.75;;;;;;;;5072162;28;52037;-63
2022/08/18 09:25:09;;;;;;;;;25.25;25.00;;;;;;;;5049849;28;51057;-63
2022/08/18 09:27:40;;;;;;;;;19.75;19.75;;;;;;;;5049675;28;51334;-63
2022/08/18 09:30:06;;;;;;;;;22.50;21.75;;;;;;;;5050997;28;51184;-63
2022/08/18 09:32:38;;;;;;;;;19.25;17.50;;;;;;;;5071557;28;51134;-60
2022/08/18 09:35:29;;;;;;;;;21.00;19.50;;;;;;;;5072377;28;50985;-60
2022/08/18 09:43:53;;;;;;;;;19.50;18.50;;;;;;;;5070886;28;51075;-62
2022/08/18 09:46:37;;;;;;;;;22.25;22.00;;;;;;;;5070551;28;51132;-62
2022/08/18 09:49:21;;;;;;;;;23.25;23.00;;;;;;;;5072166;27;51250;-62
2022/08/18 09:51:46;;;;;;;;;20.00;19.75;;;;;;;;5072205;27;51103;-61
2022/08/18 09:54:12;;;;;;;;;15.00;14.00;;;;;;;;5072275;28;50959;-61
2022/08/18 09:56:50;;;;;;;;;17.25;17.00;;;;;;;;5075327;27;50953;-61
2022/08/18 09:59:33;;;;;;;;;21.50;20.50;;;;;;;;5075413;27;51000;-60
2022/08/18 10:02:06;;;;;;;;;18.75;18.50;;;;;;;;5074948;28;51351;-62
2022/08/18 10:04:49;;;;;;;;;20.00;20.00;;;;;;;;5074996;27;52056;-61
2022/08/18 10:07:36;;;;;;;;;24.00;23.00;;;;;;;;5074610;27;51045;-61
2022/08/18 10:10:09;;;;;;;;;20.50;20.50;;;;;;;;5075678;28;51118;-61
2022/08/18 10:12:37;;;;;;;;;17.67;17.67;;;;;;;;5075093;28;51330;-62
2022/08/18 10:15:23;;;;;;;;;19.00;18.75;;;;;;;;5075463;28;51925;-61
2022/08/18 10:18:07;;;;;;;;;23.00;21.50;;;;;;;;5073535;28;51035;-62
2022/08/18 10:20:41;;;;;;;;;19.25;19.25;;;;;;;;5075053;27;51238;-60
2022/08/18 10:23:06;;;;;;;;;19.00;18.75;;;;;;;;5074920;28;51035;-60
2022/08/18 10:25:35;;;;;;;;;18.50;17.75;;;;;;;;5074812;27;51923;-61
2022/08/18 10:28:04;;;;;;;;;17.67;16.67;;;;;;;;5075099;28;51036;-62
2022/08/18 10:30:32;;;;;;;;;15.00;15.00;;;;;;;;5075054;28;51001;-62
2022/08/18 10:32:58;;;;;;;;;22.00;21.00;;;;;;;;5075305;28;50886;-62
2022/08/18 10:35:50;;;;;;;;;20.75;20.75;;;;;;;;5074987;28;51054;-62
2022/08/18 10:38:24;;;;;;;;;20.50;19.75;;;;;;;;5068260;28;50961;-62
2022/08/18 10:40:58;;;;;;;;;16.25;15.75;;;;;;;;5075507;27;51021;-62
2022/08/18 10:43:41;;;;;;;;;15.50;15.50;;;;;;;;5075231;28;51034;-62
2022/08/18 10:46:14;;;;;;;;;19.75;19.75;;;;;;;;5075519;27;52203;-61
2022/08/18 10:48:39;;;;;;;;;19.25;19.25;;;;;;;;5075011;27;51010;-62
2022/08/18 10:51:07;;;;;;;;;18.50;18.00;;;;;;;;5075088;27;50924;-61
2022/08/18 10:53:40;;;;;;;;;17.00;17.00;;;;;;;;5074901;27;51006;-63
2022/08/18 10:56:25;;;;;;;;;19.00;19.00;;;;;;;;5074513;28;52503;-62
2022/08/18 10:58:50;;;;;;;;;21.75;20.75;;;;;;;;5074845;27;50887;-62
2022/08/18 11:01:24;;;;;;;;;14.00;13.67;;;;;;;;5074133;28;51611;-61
2022/08/18 11:04:08;;;;;;;;;15.67;15.67;;;;;;;;5073111;28;51257;-62
2022/08/18 11:06:41;;;;;;;;;17.00;16.67;;;;;;;;5072910;27;52363;-62
2022/08/18 11:09:07;;;;;;;;;18.50;18.50;;;;;;;;5073767;27;51071;-62
2022/08/18 11:11:41;;;;;;;;;17.50;16.00;;;;;;;;5074161;28;50961;-62
2022/08/18 11:14:06;;;;;;;;;15.00;14.25;;;;;;;;5074216;28;51221;-62
2022/08/18 11:16:35;;;;;;;;;14.25;13.75;;;;;;;;5072403;28;53596;-62
2022/08/18 11:19:09;;;;;;;;;14.00;14.00;;;;;;;;5073832;28;51076;-62
2022/08/18 11:21:37;;;;;;;;;13.25;13.25;;;;;;;;5073718;28;51152;-62
2022/08/18 11:24:03;;;;;;;;;13.33;12.33;;;;;;;;5073268;27;50956;-62
2022/08/18 11:26:33;;;;;;;;;13.33;13.33;;;;;;;;5073608;27;51096;-62
2022/08/18 11:28:59;;;;;;;;;14.67;12.33;;;;;;;;5073594;28;50959;-64
2022/08/18 11:31:24;;;;;;;;;12.33;12.33;;;;;;;;5073884;27;50957;-62
2022/08/18 11:33:49;;;;;;;;;14.67;12.67;;;;;;;;5074172;28;51059;-63
2022/08/18 11:36:15;;;;;;;;;13.33;13.33;;;;;;;;5073866;28;52021;-62
2022/08/18 11:38:53;;;;;;;;;11.00;11.00;;;;;;;;5073686;28;50968;-61
2022/08/18 11:41:23;;;;;;;;;12.00;12.00;;;;;;;;5073883;28;51045;-61
2022/08/18 11:43:54;;;;;;;;;12.67;12.33;;;;;;;;5073639;28;51093;-61
2022/08/18 11:46:19;;;;;;;;;13.00;12.67;;;;;;;;5071960;28;53161;-62
2022/08/18 11:48:47;;;;;;;;;13.00;13.00;;;;;;;;5073344;28;51082;-61
2022/08/18 11:51:16;;;;;;;;;14.33;14.33;;;;;;;;5073279;28;51050;-62
2022/08/18 11:53:47;;;;;;;;;11.00;10.67;;;;;;;;5073097;28;51262;-62
2022/08/18 11:56:12;;;;;;;;;11.67;11.67;;;;;;;;5071380;28;51326;-61
2022/08/18 11:59:10;;;;;;;;;12.67;12.67;;;;;;;;5073281;28;51190;-62
2022/08/18 12:01:37;;;;;;;;;15.00;13.33;;;;;;;;5060624;28;51160;-61
2022/08/18 12:04:05;;;;;;;;;13.33;13.33;;;;;;;;5073715;28;50872;-60
2022/08/18 12:06:31;;;;;;;;;11.33;11.00;;;;;;;;5072852;27;51805;-62
2022/08/18 12:09:15;;;;;;;;;8.67;8.67;;;;;;;;5072468;27;51088;-62
2022/08/18 12:11:54;;;;;;;;;9.33;9.00;;;;;;;;5072888;27;50987;-63
2022/08/18 12:14:22;;;;;;;;;7.33;7.33;;;;;;;;5071545;28;51152;-61
2022/08/18 12:16:47;;;;;;;;;10.00;9.67;;;;;;;;5072396;28;51069;-61
2022/08/18 12:19:13;;;;;;;;;10.33;10.33;;;;;;;;5072912;28;50981;-61
2022/08/18 12:21:42;;;;;;;;;8.33;8.33;;;;;;;;5073240;28;51114;-62
2022/08/18 12:24:12;;;;;;;;;10.33;9.33;;;;;;;;5072732;28;51047;-62
2022/08/18 12:26:37;;;;;;;;;8.00;8.00;;;;;;;;5072627;28;52252;-62
2022/08/18 12:29:02;;;;;;;;;6.00;5.00;;;;;;;;5073055;28;51075;-61
2022/08/18 12:31:27;;;;;;;;;5.33;5.33;;;;;;;;5073331;28;51233;-61
2022/08/18 12:33:52;;;;;;;;;5.67;5.67;;;;;;;;5073230;28;50873;-61
2022/08/18 12:36:18;;;;;;;;;8.67;8.00;;;;;;;;5072827;28;51334;-61
2022/08/18 12:38:43;;;;;;;;;11.00;9.00;;;;;;;;5071210;28;50977;-62
2022/08/18 12:41:10;;;;;;;;;10.00;10.00;;;;;;;;5072566;28;50879;-63
2022/08/18 12:43:36;;;;;;;;;11.00;11.00;;;;;;;;5072635;28;51279;-62
2022/08/18 12:46:01;;;;;;;;;16.00;15.00;;;;;;;;5072427;28;52112;-62
2022/08/18 12:48:29;;;;;;;;;12.67;12.33;;;;;;;;5072576;28;51050;-62
2022/08/18 12:50:54;;;;;;;;;14.00;13.67;;;;;;;;5072339;28;51010;-61
2022/08/18 12:53:19;;;;;;;;;12.00;12.00;;;;;;;;5071933;28;51435;-60
2022/08/18 12:55:44;;;;;;;;;14.33;14.00;;;;;;;;5072507;28;51337;-61
2022/08/18 12:58:10;;;;;;;;;12.67;12.67;;;;;;;;5071298;28;51045;-62
2022/08/18 13:00:36;;;;;;;;;12.00;12.00;;;;;;;;5072697;28;50922;-61
2022/08/18 13:03:01;;;;;;;;;12.00;12.00;;;;;;;;5072521;27;51042;-61
2022/08/18 13:05:27;;;;;;;;;12.00;11.33;;;;;;;;5071833;28;52104;-61
2022/08/18 13:07:52;;;;;;;;;11.33;10.67;;;;;;;;5070797;28;51082;-61
2022/08/18 13:10:17;;;;;;;;;9.00;9.00;;;;;;;;5072427;27;50940;-62
2022/08/18 13:12:42;;;;;;;;;11.00;10.00;;;;;;;;5071288;28;51152;-61
2022/08/18 13:15:09;;;;;;;;;12.33;11.33;;;;;;;;5072290;28;51834;-62
2022/08/18 13:17:36;;;;;;;;;10.67;10.67;;;;;;;;5072176;28;51192;-62
2022/08/18 13:20:04;;;;;;;;;14.67;14.00;;;;;;;;5072342;27;51023;-62
2022/08/18 13:22:30;;;;;;;;;15.67;14.00;;;;;;;;5071728;28;51416;-62
2022/08/18 13:24:55;;;;;;;;;14.67;14.67;;;;;;;;5072054;27;51712;-61
2022/08/18 13:27:21;;;;;;;;;13.33;13.33;;;;;;;;5071905;28;50984;-62
2022/08/18 13:29:47;;;;;;;;;11.33;11.33;;;;;;;;5071185;28;50945;-61
2022/08/18 13:32:13;;;;;;;;;12.00;12.00;;;;;;;;5071870;28;50908;-61
2022/08/18 13:34:38;;;;;;;;;10.33;10.33;;;;;;;;5071590;28;51067;-62
2022/08/18 13:37:04;;;;;;;;;12.67;12.67;;;;;;;;5071560;28;50930;-61
2022/08/18 13:39:30;;;;;;;;;12.67;11.33;;;;;;;;5071621;28;51046;-61
2022/08/18 13:41:55;;;;;;;;;11.00;11.00;;;;;;;;5070213;28;51192;-62
2022/08/18 13:44:21;;;;;;;;;12.67;12.33;;;;;;;;5071534;27;51348;-62
2022/08/18 13:46:47;;;;;;;;;12.33;12.00;;;;;;;;5071972;28;50960;-61
2022/08/18 13:49:12;;;;;;;;;11.33;10.33;;;;;;;;5072035;27;51084;-62
2022/08/18 13:51:38;;;;;;;;;14.00;12.33;;;;;;;;5071933;28;51195;-61
2022/08/18 13:54:04;;;;;;;;;11.67;11.00;;;;;;;;5071287;28;51909;-62
2022/08/18 13:56:29;;;;;;;;;12.00;12.00;;;;;;;;5071630;28;51093;-62
2022/08/18 13:58:54;;;;;;;;;12.67;12.00;;;;;;;;5070710;28;51188;-61
2022/08/18 14:01:20;;;;;;;;;10.00;9.00;;;;;;;;5071868;28;51169;-61
2022/08/18 14:03:45;;;;;;;;;10.00;10.00;;;;;;;;5071779;28;50990;-61
2022/08/18 14:06:11;;;;;;;;;11.67;11.00;;;;;;;;5071226;27;51155;-62
2022/08/18 14:08:36;;;;;;;;;9.67;9.67;;;;;;;;5071184;28;50985;-62
2022/08/18 14:11:02;;;;;;;;;10.00;10.00;;;;;;;;5071716;28;50938;-62
2022/08/18 14:13:27;;;;;;;;;10.67;10.67;;;;;;;;5071615;28;51951;-62
2022/08/18 14:15:53;;;;;;;;;10.67;9.67;;;;;;;;5070243;28;50977;-62
2022/08/18 14:18:19;;;;;;;;;12.67;12.00;;;;;;;;5071374;27;51132;-61
2022/08/18 14:28:55;;;;;;;;;9.67;9.67;;;;;;;;5071659;28;51088;-62
2022/08/18 14:31:21;;;;;;;;;10.33;10.33;;;;;;;;5070524;28;51305;-61
2022/08/18 14:33:46;;;;;;;;;10.67;9.67;;;;;;;;5071197;28;51165;-62
2022/08/18 14:36:12;;;;;;;;;8.33;8.33;;;;;;;;5071228;28;51042;-62
2022/08/18 14:38:38;;;;;;;;;10.67;10.33;;;;;;;;5071070;28;51072;-61
2022/08/18 14:41:05;;;;;;;;;9.00;8.33;;;;;;;;5073643;28;50871;-62
2022/08/18 14:43:30;;;;;;;;;9.33;9.33;;;;;;;;5074560;28;52086;-61
2022/08/18 14:45:56;;;;;;;;;9.00;9.00;;;;;;;;5074810;28;51093;-62
2022/08/18 14:48:21;;;;;;;;;10.00;10.00;;;;;;;;5074852;28;51104;-61
2022/08/18 14:50:49;;;;;;;;;13.00;13.00;;;;;;;;5075009;28;51289;-62